createdAt,value
2019-03-28T00:00:17.411Z,49.8
2019-03-28T00:01:18.090Z,47.3
2019-03-28T00:02:18.776Z,46.8
2019-03-28T00:03:19.462Z,53.2
2019-03-28T00:04:20.141Z,51.6
2019-03-28T00:05:20.851Z,47.6
2019-03-28T00:06:21.516Z,57.2
2019-03-28T00:07:24.260Z,52.6
2019-03-28T00:08:22.885Z,55.7
2019-03-28T00:09:23.590Z,57.2
2019-03-28T00:10:24.267Z,59.2
2019-03-28T00:11:24.939Z,60.6
2019-03-28T00:12:25.616Z,60.7
2019-03-28T00:13:26.303Z,54.9
2019-03-28T00:14:26.988Z,55.5
2019-03-28T00:15:27.672Z,57.8
2019-03-28T00:16:28.367Z,53.1
2019-03-28T00:17:29.015Z,53.5
2019-03-28T00:18:29.697Z,59.2
2019-03-28T00:19:30.385Z,61.5
2019-03-28T00:20:31.071Z,59.5
2019-03-28T00:21:31.762Z,56.6
2019-03-28T00:22:32.445Z,61.0
2019-03-28T00:23:33.128Z,60.6
2019-03-28T00:24:33.818Z,61.7
2019-03-28T00:25:34.496Z,64.6
2019-03-28T00:26:35.183Z,58.9
2019-03-28T00:27:35.868Z,56.6
2019-03-28T00:28:36.978Z,54.4
2019-03-28T00:29:37.232Z,59.0
2019-03-28T00:30:37.919Z,58.7
2019-03-28T00:31:38.625Z,58.3
2019-03-28T00:32:39.291Z,59.4
2019-03-28T00:33:39.978Z,63.8
2019-03-28T00:34:40.660Z,63.9
2019-03-28T00:35:41.347Z,62.4
2019-03-28T00:36:42.220Z,68.2
2019-03-28T00:37:42.719Z,68.6
2019-03-28T00:38:43.404Z,66.4
2019-03-28T00:39:44.085Z,60.6
2019-03-28T00:40:44.771Z,66.3
2019-03-28T00:41:45.455Z,58.3
2019-03-28T00:42:46.141Z,68.5
2019-03-28T00:43:46.828Z,70.6
2019-03-28T00:44:47.512Z,67.2
2019-03-28T00:45:48.204Z,63.9
2019-03-28T00:46:48.886Z,62.7
2019-03-28T00:47:49.575Z,56.4
2019-03-28T00:48:50.256Z,60.6
2019-03-28T00:49:50.945Z,63.4
2019-03-28T00:50:51.626Z,58.1
2019-03-28T00:51:52.310Z,64.6
2019-03-28T00:52:52.996Z,61.9
2019-03-28T00:53:53.653Z,64.9
2019-03-28T00:54:54.336Z,64.2
2019-03-28T00:55:55.020Z,61.4
2019-03-28T00:56:55.703Z,66.2
2019-03-28T00:57:56.388Z,63.9
2019-03-28T00:58:57.075Z,75.0
2019-03-28T00:59:57.762Z,66.1
2019-03-28T01:00:58.447Z,63.9
2019-03-28T01:01:59.137Z,61.9
2019-03-28T01:02:59.838Z,65.1
2019-03-28T01:04:00.505Z,65.1
2019-03-28T01:05:01.188Z,62.4
2019-03-28T01:06:01.874Z,61.8
2019-03-28T01:07:02.570Z,71.0
2019-03-28T01:08:03.251Z,66.9
2019-03-28T01:09:04.289Z,65.9
2019-03-28T01:10:04.618Z,65.1
2019-03-28T01:11:05.296Z,66.0
2019-03-28T01:12:05.980Z,64.3
2019-03-28T01:13:06.670Z,61.4
2019-03-28T01:14:07.383Z,66.1
2019-03-28T01:15:08.027Z,69.9
2019-03-28T01:16:08.720Z,69.7
2019-03-28T01:17:09.396Z,61.7
2019-03-28T01:18:10.088Z,66.0
2019-03-28T01:19:10.764Z,60.6
2019-03-28T01:20:11.453Z,66.5
2019-03-28T01:21:12.133Z,64.7
2019-03-28T01:22:12.818Z,63.7
2019-03-28T01:23:13.507Z,62.5
2019-03-28T01:24:14.190Z,65.8
2019-03-28T01:25:14.875Z,63.1
2019-03-28T01:26:15.557Z,64.9
2019-03-28T01:27:16.237Z,75.3
2019-03-28T01:28:16.894Z,59.5
2019-03-28T01:29:17.577Z,65.4
2019-03-28T01:30:18.267Z,65.3
2019-03-28T01:31:18.949Z,66.8
2019-03-28T01:32:19.636Z,63.6
2019-03-28T01:33:20.336Z,60.2
2019-03-28T01:34:21.009Z,58.7
2019-03-28T01:35:21.690Z,63.5
2019-03-28T01:36:22.376Z,65.2
2019-03-28T01:37:23.061Z,58.0
2019-03-28T01:38:23.745Z,61.0
2019-03-28T01:39:24.435Z,63.2
2019-03-28T01:40:25.129Z,65.7
2019-03-28T01:41:25.811Z,60.5
2019-03-28T01:42:26.496Z,54.3
2019-03-28T01:43:27.266Z,58.1
2019-03-28T01:44:27.862Z,56.9
2019-03-28T01:45:28.547Z,55.6
2019-03-28T01:46:29.230Z,65.6
2019-03-28T01:47:29.916Z,57.3
2019-03-28T01:48:30.599Z,58.7
2019-03-28T01:49:31.284Z,56.6
2019-03-28T01:50:31.985Z,62.6
2019-03-28T01:51:32.655Z,61.6
2019-03-28T01:52:33.339Z,63.4
2019-03-28T01:53:34.030Z,63.7
2019-03-28T01:54:34.710Z,56.7
2019-03-28T01:55:35.394Z,54.2
2019-03-28T01:56:36.373Z,54.3
2019-03-28T01:57:36.762Z,57.7
2019-03-28T01:58:37.453Z,63.9
2019-03-28T01:59:38.131Z,59.6
2019-03-28T02:00:38.825Z,57.0
2019-03-28T02:01:39.508Z,58.2
2019-03-28T02:02:40.195Z,58.4
2019-03-28T02:03:40.872Z,60.0
2019-03-28T02:04:41.556Z,59.3
2019-03-28T02:05:42.246Z,60.8
2019-03-28T02:06:42.928Z,67.2
2019-03-28T02:07:43.616Z,62.9
2019-03-28T02:08:44.304Z,67.8
2019-03-28T02:09:45.018Z,62.5
2019-03-28T02:10:45.661Z,57.3
2019-03-28T02:11:46.341Z,63.3
2019-03-28T02:12:46.998Z,55.2
2019-03-28T02:13:47.695Z,69.2
2019-03-28T02:14:48.370Z,62.9
2019-03-28T02:15:49.051Z,64.3
2019-03-28T02:16:49.742Z,64.2
2019-03-28T02:17:50.444Z,64.8
2019-03-28T02:18:51.114Z,67.2
2019-03-28T02:19:51.796Z,61.5
2019-03-28T02:20:52.486Z,63.8
2019-03-28T02:21:53.272Z,62.1
2019-03-28T02:22:53.848Z,69.2
2019-03-28T02:23:54.533Z,67.7
2019-03-28T02:24:55.215Z,72.7
2019-03-28T02:25:55.919Z,63.8
2019-03-28T02:26:56.591Z,62.3
2019-03-28T02:27:57.275Z,72.4
2019-03-28T02:28:57.975Z,72.7
2019-03-28T02:29:58.646Z,68.4
2019-03-28T02:30:59.385Z,63.9
2019-03-28T02:32:00.019Z,66.8
2019-03-28T02:33:00.708Z,69.9
2019-03-28T02:34:01.385Z,68.7
2019-03-28T02:35:02.067Z,68.9
2019-03-28T02:36:02.763Z,64.2
2019-03-28T02:37:03.444Z,67.6
2019-03-28T02:38:04.134Z,70.6
2019-03-28T02:39:04.803Z,73.5
2019-03-28T02:40:05.495Z,65.0
2019-03-28T02:41:06.170Z,68.3
2019-03-28T02:42:06.855Z,79.0
2019-03-28T02:43:07.543Z,77.2
2019-03-28T02:44:08.234Z,75.3
2019-03-28T02:45:08.915Z,82.4
2019-03-28T02:46:09.601Z,78.5
2019-03-28T02:47:10.432Z,86.4
2019-03-28T02:48:10.973Z,78.5
2019-03-28T02:49:11.650Z,81.6
2019-03-28T02:50:12.349Z,84.7
2019-03-28T02:51:13.027Z,67.7
2019-03-28T02:52:13.709Z,76.6
2019-03-28T02:53:14.395Z,86.3
2019-03-28T02:54:15.086Z,85.5
2019-03-28T02:55:15.801Z,85.7
2019-03-28T02:56:16.473Z,84.1
2019-03-28T02:57:17.168Z,77.6
2019-03-28T02:58:17.846Z,88.8
2019-03-28T02:59:18.530Z,82.5
2019-03-28T03:00:19.190Z,95.6
2019-03-28T03:01:19.879Z,95.6
2019-03-28T03:02:20.567Z,90.1
2019-03-28T03:03:21.248Z,94.4
2019-03-28T03:04:21.948Z,92.5
2019-03-28T03:05:22.622Z,86.7
2019-03-28T03:06:23.319Z,82.0
2019-03-28T03:07:24.003Z,84.3
2019-03-28T03:08:24.686Z,88.7
2019-03-28T03:09:25.754Z,91.6
2019-03-28T03:10:26.052Z,90.1
2019-03-28T03:11:26.726Z,91.6
2019-03-28T03:12:27.860Z,102.8
2019-03-28T03:13:28.100Z,99.7
2019-03-28T03:14:28.786Z,97.8
2019-03-28T03:15:30.108Z,97.6
2019-03-28T03:16:30.133Z,93.4
2019-03-28T03:17:30.804Z,92.5
2019-03-28T03:18:31.488Z,93.8
2019-03-28T03:19:32.174Z,91.7
2019-03-28T03:20:32.857Z,89.3
2019-03-28T03:21:33.553Z,97.5
2019-03-28T03:22:34.240Z,85.3
2019-03-28T03:23:34.913Z,94.2
2019-03-28T03:24:35.594Z,94.7
2019-03-28T03:25:36.279Z,91.5
2019-03-28T03:26:36.969Z,88.0
2019-03-28T03:27:37.656Z,91.3
2019-03-28T03:28:38.347Z,95.5
2019-03-28T03:29:39.028Z,96.0
2019-03-28T03:30:39.712Z,96.0
2019-03-28T03:31:40.428Z,80.8
2019-03-28T03:32:41.107Z,93.3
2019-03-28T03:33:41.774Z,92.3
2019-03-28T03:34:42.458Z,100.6
2019-03-28T03:35:43.137Z,83.0
2019-03-28T03:36:43.824Z,103.4
2019-03-28T03:37:44.516Z,91.9
2019-03-28T03:38:45.200Z,97.8
2019-03-28T03:39:45.893Z,107.4
2019-03-28T03:40:46.573Z,109.0
2019-03-28T03:41:47.259Z,115.0
2019-03-28T03:42:47.949Z,100.1
2019-03-28T03:43:49.669Z,102.9
2019-03-28T03:44:49.317Z,102.9
2019-03-28T03:45:50.010Z,94.6
2019-03-28T03:46:50.694Z,101.6
2019-03-28T03:47:51.390Z,88.2
2019-03-28T03:48:52.057Z,98.1
2019-03-28T03:49:52.743Z,111.2
2019-03-28T03:50:53.437Z,101.1
2019-03-28T03:51:54.124Z,102.2
2019-03-28T03:52:54.812Z,101.5
2019-03-28T03:53:55.508Z,110.1
2019-03-28T03:54:56.184Z,96.1
2019-03-28T03:55:56.872Z,124.1
2019-03-28T03:56:57.557Z,96.6
2019-03-28T03:58:14.518Z,103.9
2019-03-28T03:58:58.929Z,99.8
2019-03-28T03:59:59.611Z,104.0
2019-03-28T04:01:00.295Z,108.3
2019-03-28T04:02:00.982Z,104.8
2019-03-28T04:03:02.967Z,119.4
2019-03-28T04:04:02.490Z,102.5
2019-03-28T04:05:03.036Z,102.5
2019-03-28T04:06:03.717Z,101.9
2019-03-28T04:07:04.419Z,117.4
2019-03-28T04:08:05.084Z,102.2
2019-03-28T04:09:05.771Z,125.7
2019-03-28T04:10:06.463Z,122.4
2019-03-28T04:11:07.113Z,119.4
2019-03-28T04:12:07.807Z,106.9
2019-03-28T04:13:08.496Z,114.3
2019-03-28T04:14:09.184Z,100.7
2019-03-28T04:15:09.872Z,117.5
2019-03-28T04:16:10.559Z,119.8
2019-03-28T04:17:11.253Z,137.9
2019-03-28T04:18:12.000Z,133.9
2019-03-28T04:19:12.613Z,121.6
2019-03-28T04:20:13.302Z,115.3
2019-03-28T04:21:13.982Z,116.4
2019-03-28T04:22:14.677Z,115.1
2019-03-28T04:23:15.368Z,109.2
2019-03-28T04:24:16.049Z,107.8
2019-03-28T04:25:16.737Z,99.8
2019-03-28T04:26:17.424Z,98.6
2019-03-28T04:27:18.106Z,96.1
2019-03-28T04:28:30.730Z,108.8
2019-03-28T04:29:19.467Z,95.3
2019-03-28T04:30:20.156Z,118.4
2019-03-28T04:31:20.848Z,121.0
2019-03-28T04:32:21.580Z,129.4
2019-03-28T04:33:22.279Z,107.6
2019-03-28T04:34:22.942Z,117.6
2019-03-28T04:35:23.647Z,107.0
2019-03-28T04:36:24.317Z,121.4
2019-03-28T04:37:25.013Z,116.8
2019-03-28T04:38:25.702Z,110.0
2019-03-28T04:39:26.389Z,125.8
2019-03-28T04:40:27.064Z,142.8
2019-03-28T04:41:27.758Z,132.9
2019-03-28T04:42:28.469Z,128.9
2019-03-28T04:43:29.135Z,120.2
2019-03-28T04:44:29.813Z,133.9
2019-03-28T04:45:30.499Z,155.5
2019-03-28T04:46:31.187Z,148.5
2019-03-28T04:47:31.882Z,150.2
2019-03-28T04:48:32.572Z,144.8
2019-03-28T04:49:33.267Z,142.7
2019-03-28T04:50:33.944Z,136.7
2019-03-28T04:51:34.629Z,123.5
2019-03-28T04:52:35.314Z,118.5
2019-03-28T04:53:36.005Z,125.4
2019-03-28T04:54:36.703Z,132.6
2019-03-28T04:55:37.388Z,135.4
2019-03-28T04:56:38.329Z,140.8
2019-03-28T04:57:41.047Z,146.8
2019-03-28T04:58:44.708Z,118.8
2019-03-28T04:59:40.158Z,118.6
2019-03-28T05:00:40.827Z,179.9
2019-03-28T05:01:41.511Z,132.5
2019-03-28T05:02:42.195Z,139.6
2019-03-28T05:03:42.884Z,141.3
2019-03-28T05:04:43.577Z,144.0
2019-03-28T05:05:44.264Z,124.8
2019-03-28T05:06:44.954Z,139.7
2019-03-28T05:07:45.646Z,120.9
2019-03-28T05:08:46.328Z,100.4
2019-03-28T05:09:47.017Z,120.9
2019-03-28T05:10:47.709Z,135.8
2019-03-28T05:11:48.395Z,130.5
2019-03-28T05:12:49.079Z,152.8
2019-03-28T05:13:49.764Z,129.3
2019-03-28T05:14:50.457Z,120.7
2019-03-28T05:15:51.149Z,122.8
2019-03-28T05:16:51.831Z,120.8
2019-03-28T05:17:52.530Z,114.8
2019-03-28T05:18:53.212Z,123.1
2019-03-28T05:19:53.906Z,115.5
2019-03-28T05:20:54.578Z,128.1
2019-03-28T05:21:55.267Z,152.6
2019-03-28T05:22:55.961Z,153.7
2019-03-28T05:23:56.649Z,153.5
2019-03-28T05:24:57.340Z,151.0
2019-03-28T05:25:58.037Z,156.3
2019-03-28T05:26:58.707Z,133.4
2019-03-28T05:27:59.551Z,157.5
2019-03-28T05:29:00.081Z,160.9
2019-03-28T05:30:00.771Z,151.1
2019-03-28T05:31:01.458Z,153.8
2019-03-28T05:32:02.146Z,129.3
2019-03-28T05:33:02.835Z,139.6
2019-03-28T05:34:03.523Z,130.4
2019-03-28T05:35:04.213Z,137.1
2019-03-28T05:36:04.909Z,152.8
2019-03-28T05:37:05.598Z,143.6
2019-03-28T05:38:06.287Z,141.4
2019-03-28T05:39:06.977Z,145.7
2019-03-28T05:40:07.668Z,132.2
2019-03-28T05:41:08.355Z,142.4
2019-03-28T05:42:09.051Z,145.3
2019-03-28T05:43:09.736Z,153.4
2019-03-28T05:44:10.432Z,157.2
2019-03-28T05:45:11.112Z,167.6
2019-03-28T05:46:11.817Z,146.1
2019-03-28T05:47:12.499Z,154.5
2019-03-28T05:48:13.192Z,169.9
2019-03-28T05:49:13.878Z,154.9
2019-03-28T05:50:14.573Z,165.9
2019-03-28T05:51:15.258Z,141.3
2019-03-28T05:52:15.946Z,177.2
2019-03-28T05:53:16.638Z,153.7
2019-03-28T05:54:17.328Z,167.2
2019-03-28T05:55:18.015Z,172.1
2019-03-28T05:56:18.708Z,177.8
2019-03-28T05:57:19.403Z,155.8
2019-03-28T05:58:20.089Z,158.3
2019-03-28T05:59:20.781Z,155.4
2019-03-28T06:00:21.470Z,145.9
2019-03-28T06:01:22.166Z,163.1
2019-03-28T06:02:22.858Z,148.2
2019-03-28T06:03:23.544Z,159.4
2019-03-28T06:04:24.233Z,147.4
2019-03-28T06:05:24.934Z,145.4
2019-03-28T06:06:25.625Z,139.8
2019-03-28T06:07:26.322Z,136.6
2019-03-28T06:08:27.163Z,149.7
2019-03-28T06:09:27.848Z,144.0
2019-03-28T06:10:28.546Z,149.1
2019-03-28T06:11:29.244Z,141.0
2019-03-28T06:12:29.923Z,146.4
2019-03-28T06:13:30.611Z,131.7
2019-03-28T06:14:31.315Z,156.8
2019-03-28T06:15:32.004Z,160.8
2019-03-28T06:16:32.700Z,172.0
2019-03-28T06:17:33.382Z,162.7
2019-03-28T06:18:34.068Z,162.5
2019-03-28T06:19:34.761Z,139.0
2019-03-28T06:20:35.451Z,150.7
2019-03-28T06:21:36.139Z,148.1
2019-03-28T06:22:36.833Z,129.8
2019-03-28T06:23:37.530Z,130.0
2019-03-28T06:24:38.221Z,140.2
2019-03-28T06:25:40.933Z,139.3
2019-03-28T06:26:39.592Z,148.9
2019-03-28T06:27:40.286Z,138.4
2019-03-28T06:28:40.974Z,167.4
2019-03-28T06:29:41.661Z,157.8
2019-03-28T06:30:42.351Z,148.6
2019-03-28T06:31:54.574Z,150.7
2019-03-28T06:32:43.759Z,137.9
2019-03-28T06:33:44.416Z,125.7
2019-03-28T06:34:45.106Z,114.1
2019-03-28T06:35:45.816Z,113.0
2019-03-28T06:36:46.516Z,134.9
2019-03-28T06:37:47.185Z,123.1
2019-03-28T06:38:47.876Z,118.0
2019-03-28T06:39:48.567Z,107.9
2019-03-28T06:40:49.256Z,102.9
2019-03-28T06:41:49.945Z,102.1
2019-03-28T06:42:50.645Z,116.9
2019-03-28T06:43:51.335Z,101.7
2019-03-28T06:44:52.024Z,100.4
2019-03-28T06:45:52.717Z,105.1
2019-03-28T06:46:53.406Z,89.7
2019-03-28T06:47:54.093Z,93.5
2019-03-28T06:48:54.779Z,92.0
2019-03-28T06:49:55.468Z,91.0
2019-03-28T06:50:56.159Z,88.7
2019-03-28T06:51:56.851Z,93.2
2019-03-28T06:52:57.536Z,84.0
2019-03-28T06:53:58.224Z,93.2
2019-03-28T06:54:58.919Z,90.3
2019-03-28T06:55:59.607Z,94.4
2019-03-28T06:57:00.317Z,89.0
2019-03-28T06:58:01.008Z,84.8
2019-03-28T06:59:01.702Z,82.5
2019-03-28T07:00:02.409Z,66.3
2019-03-28T07:01:03.093Z,81.4
2019-03-28T07:02:03.781Z,75.3
2019-03-28T07:03:04.475Z,71.8
2019-03-28T07:04:05.164Z,68.6
2019-03-28T07:05:05.859Z,62.3
2019-03-28T07:06:06.549Z,51.4
2019-03-28T07:07:07.245Z,50.5
2019-03-28T07:08:07.912Z,49.5
2019-03-28T07:09:08.611Z,47.4
2019-03-28T07:10:09.293Z,38.9
2019-03-28T07:11:09.984Z,35.6
2019-03-28T07:12:10.678Z,30.4
2019-03-28T07:13:11.367Z,26.3
2019-03-28T07:14:12.057Z,25.2
2019-03-28T07:15:12.758Z,23.8
2019-03-28T07:16:13.457Z,18.0
2019-03-28T07:17:14.151Z,21.8
2019-03-28T07:18:14.835Z,26.7
2019-03-28T07:19:15.528Z,20.9
2019-03-28T07:20:16.197Z,17.8
2019-03-28T07:21:16.882Z,17.3
2019-03-28T07:22:17.574Z,22.1
2019-03-28T07:23:18.274Z,21.4
2019-03-28T07:24:18.963Z,21.4
2019-03-28T07:25:19.655Z,19.0
2019-03-28T07:26:20.351Z,16.0
2019-03-28T07:27:21.042Z,17.6
2019-03-28T07:28:21.742Z,18.6
2019-03-28T07:29:22.435Z,20.4
2019-03-28T07:30:23.124Z,21.0
2019-03-28T07:31:23.818Z,22.0
2019-03-28T07:32:24.515Z,21.6
2019-03-28T07:33:25.203Z,24.7
2019-03-28T07:34:25.906Z,18.8
2019-03-28T07:35:26.593Z,24.7
2019-03-28T07:36:27.287Z,21.0
2019-03-28T07:37:28.311Z,23.0
2019-03-28T07:38:28.642Z,23.4
2019-03-28T07:39:29.333Z,22.5
2019-03-28T07:40:33.284Z,25.6
2019-03-28T07:41:30.718Z,21.3
2019-03-28T07:42:31.411Z,20.1
2019-03-28T07:43:32.111Z,19.5
2019-03-28T07:44:32.797Z,19.8
2019-03-28T07:45:34.516Z,18.1
2019-03-28T07:46:34.186Z,22.9
2019-03-28T07:47:34.881Z,24.5
2019-03-28T07:48:35.571Z,20.4
2019-03-28T07:49:37.733Z,20.5
2019-03-28T07:50:37.571Z,23.8
2019-03-28T07:51:37.660Z,17.6
2019-03-28T07:52:38.344Z,17.8
2019-03-28T07:53:39.039Z,23.2
2019-03-28T07:54:39.738Z,16.1
2019-03-28T07:55:40.423Z,21.7
2019-03-28T07:56:41.118Z,18.4
2019-03-28T07:57:41.812Z,22.0
2019-03-28T07:58:44.221Z,20.3
2019-03-28T07:59:44.178Z,16.1
2019-03-28T08:00:43.887Z,19.2
2019-03-28T08:01:44.578Z,18.6
2019-03-28T08:02:45.274Z,18.4
2019-03-28T08:03:45.967Z,16.2
2019-03-28T08:04:46.633Z,20.4
2019-03-28T08:05:47.326Z,19.5
2019-03-28T08:06:49.909Z,21.2
2019-03-28T08:07:48.709Z,23.5
2019-03-28T08:08:49.401Z,17.7
2019-03-28T08:09:50.122Z,17.1
2019-03-28T08:10:50.790Z,19.5
2019-03-28T08:11:51.491Z,17.3
2019-03-28T08:12:52.195Z,16.4
2019-03-28T08:13:52.883Z,20.8
2019-03-28T08:14:53.623Z,18.2
2019-03-28T08:15:54.324Z,17.6
2019-03-28T08:16:55.017Z,24.6
2019-03-28T08:17:55.711Z,19.2
2019-03-28T08:18:56.408Z,21.3
2019-03-28T08:19:57.105Z,19.6
2019-03-28T08:20:57.801Z,23.2
2019-03-28T08:21:58.495Z,17.9
2019-03-28T08:22:59.188Z,12.0
2019-03-28T08:23:59.889Z,16.5
2019-03-28T08:25:00.581Z,12.0
2019-03-28T08:26:01.278Z,15.7
2019-03-28T08:27:01.975Z,13.7
2019-03-28T08:28:02.663Z,19.8
2019-03-28T08:29:03.358Z,12.6
2019-03-28T08:30:17.236Z,15.3
2019-03-28T08:31:04.761Z,15.4
2019-03-28T08:32:05.449Z,21.7
2019-03-28T08:33:06.143Z,15.5
2019-03-28T08:34:06.838Z,17.4
2019-03-28T08:35:07.529Z,17.6
2019-03-28T08:36:08.226Z,11.8
2019-03-28T08:37:08.924Z,14.8
2019-03-28T08:38:10.377Z,10.8
2019-03-28T08:39:10.333Z,14.3
2019-03-28T08:40:11.018Z,12.2
2019-03-28T08:41:11.700Z,16.0
2019-03-28T08:42:12.409Z,15.1
2019-03-28T08:43:13.091Z,11.9
2019-03-28T08:44:13.792Z,10.8
2019-03-28T08:45:14.485Z,11.7
2019-03-28T08:46:15.190Z,13.7
2019-03-28T08:47:15.886Z,9.4
2019-03-28T08:48:16.592Z,14.9
2019-03-28T08:49:17.270Z,14.7
2019-03-28T08:50:17.976Z,11.5
2019-03-28T08:51:18.667Z,20.3
2019-03-28T08:52:19.352Z,9.6
2019-03-28T08:53:20.051Z,10.2
2019-03-28T08:54:20.748Z,13.0
2019-03-28T08:55:21.442Z,14.8
2019-03-28T08:56:22.137Z,9.7
2019-03-28T08:57:22.835Z,19.0
2019-03-28T08:58:23.531Z,11.5
2019-03-28T08:59:24.226Z,8.9
2019-03-28T09:00:32.874Z,13.6
2019-03-28T09:01:25.617Z,9.3
2019-03-28T09:02:26.306Z,7.6
2019-03-28T09:03:26.999Z,6.6
2019-03-28T09:04:27.699Z,12.1
2019-03-28T09:05:28.395Z,6.9
2019-03-28T09:06:29.087Z,11.4
2019-03-28T09:07:29.781Z,8.5
2019-03-28T09:08:30.480Z,9.8
2019-03-28T09:09:31.176Z,10.7
2019-03-28T09:10:31.877Z,8.1
2019-03-28T09:11:32.564Z,8.3
2019-03-28T09:12:35.165Z,7.9
2019-03-28T09:13:33.947Z,10.0
2019-03-28T09:14:34.646Z,11.5
2019-03-28T09:15:43.586Z,8.6
2019-03-28T09:16:36.041Z,13.0
2019-03-28T09:17:36.743Z,9.8
2019-03-28T09:18:37.438Z,13.5
2019-03-28T09:19:39.107Z,10.3
2019-03-28T09:20:38.840Z,9.2
2019-03-28T09:21:39.524Z,8.8
2019-03-28T09:22:40.225Z,11.8
2019-03-28T09:23:40.924Z,11.4
2019-03-28T09:24:41.620Z,15.2
2019-03-28T09:25:42.323Z,9.3
2019-03-28T09:26:43.016Z,9.8
2019-03-28T09:27:43.713Z,9.1
2019-03-28T09:28:44.406Z,7.9
2019-03-28T09:29:45.106Z,10.0
2019-03-28T09:30:49.206Z,13.0
2019-03-28T09:31:47.361Z,11.3
2019-03-28T09:32:48.053Z,12.6
2019-03-28T09:33:48.751Z,10.1
2019-03-28T09:34:49.448Z,10.6
2019-03-28T09:35:50.252Z,11.2
2019-03-28T09:36:50.838Z,9.4
2019-03-28T09:37:51.539Z,11.2
2019-03-28T09:38:52.258Z,11.1
2019-03-28T09:39:52.900Z,11.5
2019-03-28T09:40:53.596Z,12.0
2019-03-28T09:41:54.299Z,11.9
2019-03-28T09:42:54.994Z,15.5
2019-03-28T09:43:56.086Z,13.4
2019-03-28T09:44:56.478Z,12.4
2019-03-28T09:46:00.251Z,11.3
2019-03-28T09:46:57.778Z,15.1
2019-03-28T09:47:58.474Z,11.8
2019-03-28T09:48:59.174Z,11.3
2019-03-28T09:49:59.870Z,11.7
2019-03-28T09:51:00.682Z,12.7
2019-03-28T09:52:01.260Z,8.9
2019-03-28T09:53:01.955Z,11.1
2019-03-28T09:54:02.653Z,8.9
2019-03-28T09:55:03.353Z,9.3
2019-03-28T09:56:04.027Z,9.7
2019-03-28T09:57:04.723Z,7.0
2019-03-28T09:58:05.420Z,12.7
2019-03-28T09:59:06.118Z,13.3
2019-03-28T10:00:06.814Z,6.8
2019-03-28T10:01:07.513Z,11.7
2019-03-28T10:02:08.209Z,13.3
2019-03-28T10:03:08.916Z,11.8
2019-03-28T10:04:09.614Z,14.2
2019-03-28T10:05:10.310Z,8.2
2019-03-28T10:06:11.010Z,10.1
2019-03-28T10:07:11.712Z,7.3
2019-03-28T10:08:12.406Z,11.2
2019-03-28T10:09:13.105Z,7.6
2019-03-28T10:10:13.800Z,9.2
2019-03-28T10:11:14.499Z,10.2
2019-03-28T10:12:15.200Z,9.5
2019-03-28T10:13:15.904Z,7.5
2019-03-28T10:14:16.597Z,9.1
2019-03-28T10:15:17.870Z,9.1
2019-03-28T10:16:17.989Z,8.0
2019-03-28T10:17:18.691Z,8.6
2019-03-28T10:18:20.470Z,9.5
2019-03-28T10:19:20.073Z,7.1
2019-03-28T10:20:20.769Z,5.6
2019-03-28T10:21:21.465Z,6.7
2019-03-28T10:22:22.496Z,6.3
2019-03-28T10:23:22.861Z,6.3
2019-03-28T10:24:23.551Z,6.7
2019-03-28T10:25:24.222Z,5.0
2019-03-28T10:26:24.923Z,5.9
2019-03-28T10:27:25.621Z,7.4
2019-03-28T10:28:26.334Z,5.8
2019-03-28T10:29:27.034Z,5.4
2019-03-28T10:30:27.734Z,10.1
2019-03-28T10:31:28.431Z,5.9
2019-03-28T10:32:29.100Z,5.1
2019-03-28T10:33:29.806Z,7.1
2019-03-28T10:34:30.497Z,7.7
2019-03-28T10:35:31.192Z,6.2
2019-03-28T10:36:31.896Z,6.6
2019-03-28T10:37:32.613Z,7.3
2019-03-28T10:38:33.305Z,6.4
2019-03-28T10:39:34.000Z,6.2
2019-03-28T10:40:34.708Z,5.3
2019-03-28T10:41:35.414Z,5.7
2019-03-28T10:42:36.112Z,7.4
2019-03-28T10:43:36.788Z,4.9
2019-03-28T10:44:37.474Z,3.8
2019-03-28T10:45:38.172Z,6.1
2019-03-28T10:46:38.867Z,3.5
2019-03-28T10:47:39.561Z,5.3
2019-03-28T10:48:40.259Z,4.9
2019-03-28T10:49:41.533Z,7.7
2019-03-28T10:50:45.470Z,6.3
2019-03-28T10:51:42.338Z,4.4
2019-03-28T10:52:43.033Z,8.7
2019-03-28T10:53:43.728Z,3.2
2019-03-28T10:54:44.435Z,4.4
2019-03-28T10:55:45.141Z,4.6
2019-03-28T10:56:51.968Z,4.7
2019-03-28T10:57:47.386Z,4.3
2019-03-28T10:58:48.084Z,3.4
2019-03-28T10:59:48.798Z,3.3
2019-03-28T11:00:49.479Z,4.9
2019-03-28T11:01:51.119Z,4.3
2019-03-28T11:02:50.899Z,6.1
2019-03-28T11:03:51.589Z,3.9
2019-03-28T11:04:52.258Z,5.3
2019-03-28T11:05:52.959Z,5.0
2019-03-28T11:06:53.679Z,5.8
2019-03-28T11:07:54.334Z,3.8
2019-03-28T11:08:55.022Z,3.6
2019-03-28T11:09:55.717Z,4.1
2019-03-28T11:10:56.610Z,4.2
2019-03-28T11:11:57.107Z,3.7
2019-03-28T11:12:57.804Z,5.1
2019-03-28T11:13:58.496Z,4.9
2019-03-28T11:14:59.193Z,3.3
2019-03-28T11:15:59.890Z,2.6
2019-03-28T11:17:00.580Z,6.2
2019-03-28T11:18:01.276Z,2.9
2019-03-28T11:19:01.974Z,2.7
2019-03-28T11:20:02.670Z,2.4
2019-03-28T11:21:03.369Z,2.7
2019-03-28T11:22:04.055Z,3.2
2019-03-28T11:23:04.754Z,1.8
2019-03-28T11:24:05.446Z,2.7
2019-03-28T11:25:06.140Z,2.2
2019-03-28T11:26:06.837Z,4.0
2019-03-28T11:27:07.531Z,2.3
2019-03-28T11:28:08.236Z,4.9
2019-03-28T11:29:08.922Z,2.5
2019-03-28T11:30:09.616Z,6.9
2019-03-28T11:31:10.312Z,3.0
2019-03-28T11:32:11.003Z,3.5
2019-03-28T11:33:11.704Z,2.8
2019-03-28T11:34:12.395Z,5.8
2019-03-28T11:35:13.088Z,2.8
2019-03-28T11:36:13.794Z,2.9
2019-03-28T11:37:25.387Z,2.8
2019-03-28T11:38:15.171Z,5.5
2019-03-28T11:39:15.865Z,2.1
2019-03-28T11:40:16.561Z,2.6
2019-03-28T11:41:17.268Z,4.2
2019-03-28T11:42:17.946Z,2.8
2019-03-28T11:43:19.624Z,3.0
2019-03-28T11:44:19.326Z,5.1
2019-03-28T11:45:20.019Z,4.2
2019-03-28T11:46:20.713Z,3.3
2019-03-28T11:47:22.382Z,2.9
2019-03-28T11:48:22.104Z,3.9
2019-03-28T11:49:22.802Z,4.7
2019-03-28T11:50:23.494Z,7.1
2019-03-28T11:51:24.221Z,6.2
2019-03-28T11:52:24.923Z,2.6
2019-03-28T11:53:25.619Z,4.1
2019-03-28T11:54:26.324Z,3.1
2019-03-28T11:55:27.011Z,3.1
2019-03-28T11:56:27.710Z,2.6
2019-03-28T11:57:28.401Z,5.7
2019-03-28T11:58:29.097Z,2.5
2019-03-28T11:59:29.796Z,2.9
2019-03-28T12:00:30.501Z,4.3
2019-03-28T12:01:31.170Z,4.4
2019-03-28T12:02:31.858Z,4.9
2019-03-28T12:03:32.554Z,3.1
2019-03-28T12:04:33.244Z,3.5
2019-03-28T12:05:33.944Z,2.7
2019-03-28T12:06:34.643Z,3.6
2019-03-28T12:07:35.306Z,3.7
2019-03-28T12:08:36.009Z,2.2
2019-03-28T12:09:36.697Z,2.3
2019-03-28T12:10:37.394Z,5.7
2019-03-28T12:11:38.096Z,3.0
2019-03-28T12:12:38.753Z,2.9
2019-03-28T12:13:45.055Z,2.8
2019-03-28T12:14:40.140Z,2.8
2019-03-28T12:15:40.840Z,3.3
2019-03-28T12:16:41.532Z,5.3
2019-03-28T12:17:42.230Z,2.9
2019-03-28T12:18:42.925Z,2.4
2019-03-28T12:19:43.628Z,3.4
2019-03-28T12:20:45.697Z,2.8
2019-03-28T12:21:45.010Z,2.9
2019-03-28T12:22:45.709Z,3.9
2019-03-28T12:23:46.401Z,5.5
2019-03-28T12:24:47.092Z,3.4
2019-03-28T12:25:47.790Z,3.1
2019-03-28T12:26:48.532Z,4.3
2019-03-28T12:27:49.175Z,5.1
2019-03-28T12:28:49.877Z,2.6
2019-03-28T12:29:50.572Z,2.8
2019-03-28T12:30:51.277Z,3.1
2019-03-28T12:31:51.960Z,3.0
2019-03-28T12:32:52.655Z,3.1
2019-03-28T12:33:53.348Z,4.3
2019-03-28T12:34:54.045Z,4.1
2019-03-28T12:35:54.735Z,6.7
2019-03-28T12:36:55.431Z,3.2
2019-03-28T12:37:56.127Z,3.6
2019-03-28T12:38:56.824Z,3.9
2019-03-28T12:40:00.005Z,5.0
2019-03-28T12:40:58.208Z,4.6
2019-03-28T12:41:58.904Z,4.1
2019-03-28T12:42:59.597Z,7.3
2019-03-28T12:44:00.296Z,3.3
2019-03-28T12:45:00.986Z,3.6
2019-03-28T12:46:01.683Z,3.0
2019-03-28T12:47:02.380Z,3.6
2019-03-28T12:48:03.071Z,3.7
2019-03-28T12:49:03.773Z,3.7
2019-03-28T12:50:04.463Z,4.2
2019-03-28T12:51:05.153Z,3.9
2019-03-28T12:52:05.851Z,5.5
2019-03-28T12:53:06.542Z,5.7
2019-03-28T12:54:07.238Z,3.7
2019-03-28T12:55:07.947Z,4.5
2019-03-28T12:56:08.646Z,4.3
2019-03-28T12:57:09.322Z,4.2
2019-03-28T12:58:10.031Z,3.6
2019-03-28T12:59:10.711Z,4.4
2019-03-28T13:00:11.410Z,4.1
2019-03-28T13:01:12.104Z,3.4
2019-03-28T13:02:12.797Z,8.3
2019-03-28T13:03:13.493Z,4.8
2019-03-28T13:04:14.191Z,3.6
2019-03-28T13:05:14.881Z,3.8
2019-03-28T13:06:15.576Z,3.8
2019-03-28T13:07:16.268Z,3.1
2019-03-28T13:08:17.615Z,3.0
2019-03-28T13:09:17.663Z,4.5
2019-03-28T13:10:18.366Z,5.4
2019-03-28T13:11:19.650Z,3.4
2019-03-28T13:12:19.746Z,3.6
2019-03-28T13:13:20.440Z,5.4
2019-03-28T13:14:21.537Z,4.2
2019-03-28T13:15:21.826Z,4.1
2019-03-28T13:16:22.528Z,5.2
2019-03-28T13:17:23.216Z,5.0
2019-03-28T13:18:23.905Z,5.0
2019-03-28T13:19:24.608Z,5.7
2019-03-28T13:20:25.299Z,4.2
2019-03-28T13:21:25.993Z,4.0
2019-03-28T13:22:26.685Z,4.3
2019-03-28T13:23:27.433Z,4.2
2019-03-28T13:24:28.132Z,5.2
2019-03-28T13:25:28.830Z,9.0
2019-03-28T13:26:29.523Z,6.2
2019-03-28T13:27:30.222Z,5.0
2019-03-28T13:28:30.929Z,4.5
2019-03-28T13:29:31.612Z,4.9